OEMA

Prince Mohammad Bin Abdulaziz Airport

Medina, Saudi Arabia
TAF OEMA 211100Z 2112/2218 24012KT 4000 DU NSC TEMPO 2112/2120 2000 DU BECMG 2118/2120 VRB03KT
Issued Valid From Valid To
Jan-21 @ 11:00 UTC
(6 hours ago)
Jan-21 @ 12:00 UTC
(5 hours ago)
Jan-22 @ 18:00 UTC
(-1 days ago)
Jan-21 @ 12:00 to Jan-21 @ 18:00
TAF OEMA 211100Z 2112/2218 24012KT 4000 DU NSC
Wind Visibility Clouds Conditions
240° at 12 knots 4,007 meters
  • No significant clouds
  • Dust
Temporary Jan-21 @ 12:00 to Jan-21 @ 20:00
TEMPO 2112/2120 2000 DU
Visibility Conditions
1,996 meters
  • Dust
Becoming Jan-21 @ 18:00 to Jan-22 @ 18:00
BECMG 2118/2120 VRB03KT
Wind Visibility Clouds Conditions
Variable at 3 knots 4,007 meters
  • No significant clouds
  • Dust
TAF OEMA 211100Z 2112/2218 24012KT 4000 DU NSC TEMPO 2112/2120 2000 DU BECMG 2118/2120 VRB03KT
Issued Jan-21 @ 11:00 UTC
(6 hours ago)
Valid From Jan-21 @ 12:00 UTC
(5 hours ago)
Valid To Jan-22 @ 18:00 UTC
(-1 days ago)
Jan-21 @ 12:00 - Jan-21 @ 18:00
Wind Visibility
240° at 12 knots 4,007 meters
Clouds
  • No significant clouds
Conditions
  • Dust
Temporary Jan-21 @ 12:00 - Jan-21 @ 20:00
Conditions
  • Dust
Becoming Jan-21 @ 18:00 - Jan-22 @ 18:00
Wind Visibility
Variable at 3 knots 4,007 meters
Clouds
  • No significant clouds
Conditions
  • Dust